Suggestion Search

Define a bounding box (note: it will not wrap North/South over poles). If the range is zero degrees, a bounding box will not be used to constrain the search.

Centered On °   °

Match text in the suggestion title, science rationale or special notes. The search is case-insensitive. % is a wildcard (_ for a single character).

Find
Search

You may select science themes to limit query, otherwise suggestions from all themes will be returned.

Multiple values may be selected (shift + click).

  Rows per page
499 records found, displaying 101 to 200.[First/Prev] 1, 2, 3, 4, 5 [Next/Last]
ID Suggestion Title Latitude Longitude Repeat Created Observation ID
166130 Terrain sample near crater 15.323 20.886 STEREO 2018-09-29 ESP_058207_1955
166128 Terrain sample near crater 15.323 20.886 STEREO 2018-09-29 ESP_057996_1955
166126 Pedestal crater layered ejecta in Arabia Terra 15.300 21.006 STEREO 2018-09-29 ESP_057653_1955
166124 Pedestal crater layered ejecta in Arabia Terra 15.300 21.006 STEREO 2018-09-29 ESP_057442_1955
163562 Possible outflow-channel deposits at break-in-slope adjacent to crater -33.671 347.890 1 2018-08-09 ESP_060028_1460
163560 Elucidate substrate of late-stage channels -26.907 73.643 1 2018-08-09
163300 Landforms west of Medusae Fossae -1.296 187.466 1 2018-07-31 ESP_057093_1785
163298 Constrain origin of Medusae Fossae formation -1.490 187.524 1 2018-07-31 ESP_057370_1785
163126 Well-preserved polygons near the equator of Mars -10.251 183.677 1 2018-07-31
163016 Peridier Crater central peak 25.391 83.856 1 2018-07-30 ESP_057743_2055
163014 Elucidate substrate of late-stage channels -26.907 73.643 1 2018-07-30
163012 Unusually small and unusually sinuous ridge -35.688 153.088 STEREO 2018-07-30
163010 Unusually small and unusually sinuous ridge -35.688 153.088 STEREO 2018-07-30
163008 Possible deltas in crater in Amazonis Planitia 18.270 190.422 1 2018-07-30 ESP_063462_1985
161411 Junctions between wide channels and narrow channels -6.688 151.778 STEREO 2014-04-05 ESP_055894_1730
161331 Sinuous ridges north of Gale Crater -3.898 137.578 STEREO 2017-05-12 ESP_055855_1760
160623 Small exit-breach crater near ridgeline -21.749 322.972 STEREO 2018-04-29 ESP_055756_1580
160619 Unusually small exit-breach crater 35.321 6.916 STEREO 2017-11-14 ESP_055754_2155
160445 Distal end of alluvial fan in Nicholson Crater 0.624 195.257 1 2018-04-28 ESP_055721_1805
160397 Possible layer tilts in well-exposed layered crater floor materials -31.049 41.418 STEREO 2018-04-09 ESP_055740_1485
160298 Truncation of the toe of one alluvial fan by another alluvial fan -22.699 74.311 1 2018-06-15
159970 Small impact craters in Aeolis region -6.037 153.852 STEREO 2018-06-10
159968 Small impact craters in Aeolis region -6.037 153.852 STEREO 2018-06-10
159966 Full resolution stereopair for key paleoatmospheric pressure site -5.392 154.611 STEREO 2018-06-10
159964 Full resolution stereopair for key paleoatmospheric pressure site -5.392 154.611 STEREO 2018-06-10
159960 Full resolution stereopair for key paleoatmospheric pressure site -6.037 153.850 STEREO 2018-06-10
159958 Topographic interactions in Vastitas Borealis 43.215 314.124 STEREO 2018-06-09 ESP_059686_2235
159956 Topographic interactions in Vastitas Borealis 43.215 314.124 STEREO 2018-06-09 ESP_059752_2235
159954 Navua Valles -35.803 81.361 STEREO 2018-06-08 ESP_057163_1440
159952 Navua Valles -35.803 81.361 STEREO 2018-06-08 ESP_056952_1440
159950 Intracrater basin southwest of Capen Crater Rocks and Regolith 5.348 13.155 1 2012-08-20 ESP_028577_1855
159830 Test for small ancient craters near Nili Fossae 22.862 72.259 STEREO 2018-06-06 ESP_058126_2030
159828 Test for small ancient craters near Nili Fossae 22.862 72.259 STEREO 2018-06-06 ESP_057849_2030
159826 Hunt for ancient impact craters near Nili Fossae 22.324 72.314 STEREO 2018-06-06 ESP_058706_2025
159824 Hunt for ancient impact craters near Nili Fossae 22.324 72.314 STEREO 2018-06-06 ESP_058772_2025
159822 Compositionally diverse area 21.833 72.336 1 2012-09-02 ESP_030368_2020
159820 Looking for impact craters near Nili Fossae 21.427 72.144 STEREO 2018-06-06 ESP_058627_2015
159818 Looking for impact craters near Nili Fossae 21.427 72.144 STEREO 2018-06-06 ESP_058561_2015
159816 Hunt for small ancient impact craters near Nili Fossae 21.191 72.545 STEREO 2018-06-06 ESP_057229_2015
159814 Hunt for small ancient impact craters near Nili Fossae 21.191 72.545 STEREO 2018-06-06 ESP_057018_2015
159786 Layers on northern wall of Gill Crater 16.504 5.438 1 2010-04-25 ESP_025109_1965
159748 Check for layer tilts in ancient basin-fill strata -20.649 67.544 STEREO 2018-06-05
159746 Check for layer tilts in ancient basin-fill strata -20.649 67.544 STEREO 2018-06-05
159538 Ancient crater fill exposed in valley sidewall 0.014 84.465 1 2018-06-01 ESP_056622_1800
159362 Zephyria Planum -1.309 153.007 1 2012-07-24 ESP_028229_1785
159356 Repeat imaging of key site in Fig 10 of Morgan et al Icarus 2014 -22.051 72.945 3 2018-05-25
159354 Repeat imaging of key site in Fig 10 of Morgan et al Icarus 2014 -22.051 72.945 3 2018-05-25
159352 Repeat imaging of key site in Fig 10 of Morgan et al Icarus 2014 -22.051 72.945 3 2018-05-25
159268 Interaction between channel and complex pitted terrain 34.956 7.548 1 2018-05-24 ESP_056928_2155
158964 Intraflow margins and flow edge margins in proposed tsunami deposit 47.178 18.091 STEREO 2018-05-16
158962 Intraflow margins and flow edge margins in proposed tsunami deposit 47.178 18.091 STEREO 2018-05-16
158912 Small crater with layered sedimentary mound 32.758 5.076 STEREO 2018-05-15 ESP_058392_2130
158910 Small crater with layered sedimentary mound 32.758 5.076 STEREO 2018-05-15 ESP_058603_2130
158862 Section through largest of Holden Crater fans -26.949 325.453 1 2007-03-08 PSP_003077_1530
158860 Candidate inner channel and possible debris-flow deposits -13.611 186.251 1 2018-05-13 ESP_057502_1660
158858 Northern Terra Sirenum -11.558 184.511 1 2018-05-13 ESP_062935_1685
158856 Valley cutting ejecta of crater and associated sinuous ridge -11.361 185.666 STEREO 2018-05-13
158854 Valley cutting ejecta of crater and associated sinuous ridge -11.361 185.666 STEREO 2018-05-13
158604 Fan in double crater -23.644 314.412 1 2009-12-28 ESP_035159_1560
158602 Possible outflow-channel deposits at break-in-slope adjacent to crater -33.671 347.890 1 2018-05-05 ESP_060028_1460
158600 Subtle side channels suggest late-stage intercrater runoff -33.649 347.716 STEREO 2018-05-05
158598 Subtle side channels suggest late-stage intercrater runoff -33.649 347.716 STEREO 2018-05-05
158596 Outlet breach in crater -33.731 347.935 STEREO 2018-05-05 ESP_060305_1460
158594 Outlet breach in crater -33.731 347.935 STEREO 2018-05-05 ESP_060028_1460
158436 Channels on fan surface northeast of Hellas Planitia -28.507 84.175 1 2013-04-17 ESP_032583_1510
158406 Possible exit breaches in crater with preserved ejecta texture -22.375 328.754 STEREO 2018-04-29 ESP_058710_1575
158404 Possible exit breaches in crater with preserved ejecta texture -22.375 328.754 STEREO 2018-04-29 ESP_058921_1575
158402 Polyphase exit breach in small crater on east rim of Holden Crater -25.389 327.241 STEREO 2018-04-29 ESP_059053_1545
158400 Polyphase exit breach in small crater on east rim of Holden Crater -25.389 327.241 STEREO 2018-04-29 ESP_058987_1545
158398 Debris flow deposits or alluvial fan deposits in small crater -19.805 327.409 1 2018-04-29 ESP_060332_1600
158396 Exit breach in small crater -19.541 326.566 STEREO 2018-04-29 ESP_060121_1600
158394 Exit breach in small crater -19.541 326.566 STEREO 2018-04-29 ESP_059976_1600
158392 Small exit-breach crater near ridgeline -21.749 322.972 STEREO 2018-04-29 ESP_055479_1580
158390 Small exit-breach crater near ridgeline -21.749 322.972 STEREO 2018-04-29 ESP_059541_1580
158388 Floor of Nicholson Crater -0.270 195.301 STEREO 2018-04-28 ESP_059361_1795
158386 Floor of Nicholson Crater -0.270 195.301 STEREO 2018-04-28 ESP_059295_1795
158384 Distal end of alluvial fan in Nicholson Crater 0.624 195.257 1 2018-04-28 ESP_056974_1805
158382 Erosion-to-deposition transition at Eddie Crater alluvial fan 12.332 141.619 1 2018-04-28 ESP_061908_1925
158380 Constrain interactions between Mojave secondary and debris movements 9.443 325.967 1 2018-04-28
157464 Layers in Niesten Crater fill -27.626 58.228 STEREO 2018-04-09 ESP_055370_1520
157462 Deep erosional window into Niesten Crater fill -27.626 58.228 STEREO 2018-04-09 ESP_055225_1520
157460 Crater floor materials -31.049 41.418 STEREO 2018-04-09 ESP_059736_1485
157458 Crater floor materials -31.049 41.418 STEREO 2018-04-09 ESP_055463_1485
157438 Exit breach valley intersecting crater -38.841 256.685 1 2018-04-09 ESP_060216_1410
156714 Possible clay and sulfate-rich terrain -46.722 50.239 1 2018-03-23 ESP_058694_1330
156152 Possible dipping layers in ice-affected crater 31.385 178.258 STEREO 2018-03-06
156150 Possible dipping layers in ice-affected crater 31.385 178.258 STEREO 2018-03-06
155330 Light-toned layered outcrop in crater near Mawrth Vallis 23.483 343.313 1 2010-12-29 ESP_020877_2035
155156 Exit-breach crater -29.170 342.092 STEREO 2018-01-25 ESP_057193_1505
155154 Rare young southern hemisphere exit-breach crater -29.170 342.092 STEREO 2018-01-25 ESP_057061_1505
154848 Craters -32.593 359.085 STEREO 2018-01-12 ESP_060199_1470
154846 Craters -32.593 359.085 STEREO 2018-01-12 ESP_059632_1470
154800 Tie down relative timing of Nili faulting and Jezero fan 18.680 76.290 STEREO 2018-01-07
154798 Tie down relative timing of Nili faulting and Jezero fan 18.680 76.290 STEREO 2018-01-07
154310 Enigmatic ridges in Aeolis -0.004 151.182 STEREO 2017-12-13
154308 Enigmatic ridges in Aeolis -0.004 151.182 STEREO 2017-12-13
154306 Infilled troughs in Aeolis 0.013 151.361 STEREO 2017-12-13
154304 Infilled troughs in Aeolis 0.013 151.361 STEREO 2017-12-13
154302 Three generations of yardangs in Aeolis -0.056 151.854 STEREO 2017-12-13
154300 Three generations of yardangs in Aeolis -0.056 151.854 STEREO 2017-12-13

Each suggestion is given a unique ID. A stereo suggestion will be made into a pair at the discretion of the Science Theme Lead.

Suggestion title.

Latitudes are expressed in planetocentric degrees.

Longitude are measured in degrees and range east from 0 to 360.

1 for a single suggestion, STEREO for a stereo suggestion, otherwise the number of suggestions in a seasonal or other repeat set.

The date on which the suggestion was created.

If the suggestion has been retired, a link to the observation page.

The username of the suggester.